Strona główna
METAR-TAF:

METAR-TAF

Lotnisko :

Port lotniczy Padang

Padang, Indonezja

Szerokość geograficzna: 00-47-12S, Długość geograficzna: 100-16-50E, wysokość: 5 m

METAR: brakujący

czas: 05:08 (22:08 UTC)

Prognoza

Raport powstał 5 godziny i 8 minut temu, godzina 17:00 UTC
Prognoza ważna od 30 godzina 18 UTC do 31 godzina 18 UTC
Wiatr 4 kt od północno-północny wschód
Widzialność: 8000 m
Rozproszone chmury na wysokości 2000 ft
Stopniowe zmiany
od 31 godzina 01 UTC do 31 godzina 03 UTC
Wiatr 5 kt od zachodnio-południowy zachód
Widzialność 10 km lub więcej
Mało chmury na wysokości 2000 ft

TAF: WIEE 301700Z 3018/3118 02004KT 8000 SCT020 BECMG 3101/3103 25005KT 9999 FEW020

Obserwacja i prognoza pogody dla ponad 4000 lotnisk (raport METAR i TAF).

Dostępne stacje oznaczono żółtymi i czerwonymi punktami na mapie.

Najedź kursorem aby zobaczyć nazwę stacji.

Kliknij aby zobaczyć obserwacje i prognozy pogody.

Aby zmienić mapę: kliknij na zielony przycisk z czarnym krzyżykiem, aby powiększyć; na zielony przycisk z myślnikiem, aby pomniejszyć; na zielone strzałki, aby przejść do map sąsiednich.


METAR-TAF: